Time;durP1;ratioP1;P1;durP2;ratioP2;P2;SDS_P1;SDS_P2;PMS_P1;PMS_P2;Temp;Humidity;BMP_temperature;BMP_pressure;BME280_temperature;BME280_humidity;BME280_pressure;Samples;Min_cycle;Max_cycle;Signal;HPM_P1;HPM_P2
2022/01/25 00:15:02;;;;;;;20.80;10.60;;;;;;;-3.48;70.50;98039.23;107576;1270;38756;-72
2022/01/25 00:25:05;;;;;;;16.20;8.60;;;;;;;-3.29;70.61;98032.73;107560;1269;43183;-73
2022/01/25 00:27:49;;;;;;;25.70;10.10;;;;;;;-3.25;70.67;98031.52;107427;1270;50865;-73
2022/01/25 00:30:31;;;;;;;19.50;9.10;;;;;;;-3.20;70.73;98025.63;107578;1268;33032;-74
2022/01/25 00:33:02;;;;;;;22.70;11.70;;;;;;;-3.16;70.71;98029.16;107572;1269;32467;-73
2022/01/25 00:35:33;;;;;;;23.50;12.20;;;;;;;-3.12;71.19;98028.75;107541;1270;39792;-73
2022/01/25 00:38:04;;;;;;;19.60;8.20;;;;;;;-3.09;71.15;98029.82;107456;1270;44585;-73
2022/01/25 00:40:35;;;;;;;20.60;11.00;;;;;;;-3.06;71.38;98031.23;107487;1268;36013;-73
2022/01/25 00:43:06;;;;;;;17.10;8.60;;;;;;;-3.02;71.44;98025.64;107471;1268;43220;-73
2022/01/25 00:45:37;;;;;;;16.80;8.90;;;;;;;-2.97;71.58;98020.98;107546;1269;39494;-73
2022/01/25 00:48:17;;;;;;;18.60;9.70;;;;;;;-2.95;71.94;98020.95;107543;1268;34263;-73
2022/01/25 00:50:48;;;;;;;13.20;6.30;;;;;;;-2.92;72.09;98016.84;107505;1269;46889;-74
2022/01/25 00:56:07;;;;;;;23.10;12.60;;;;;;;-2.87;72.38;98012.88;107539;1270;45600;-73
2022/01/25 00:58:38;;;;;;;18.50;10.80;;;;;;;-2.86;72.54;98010.45;107506;1267;36694;-73
2022/01/25 01:01:09;;;;;;;21.60;10.60;;;;;;;-2.83;72.50;98004.67;107485;1268;46353;-73
2022/01/25 01:03:40;;;;;;;19.90;9.50;;;;;;;-2.81;72.87;98007.58;107528;1268;50177;-73
2022/01/25 01:06:11;;;;;;;21.80;11.50;;;;;;;-2.76;73.09;98002.34;107561;1267;41468;-73
2022/01/25 01:08:42;;;;;;;24.60;10.60;;;;;;;-2.74;73.05;98006.10;107537;1268;44988;-74
2022/01/25 01:11:19;;;;;;;17.20;7.80;;;;;;;-2.72;72.72;98004.64;107638;1268;29586;-73
2022/01/25 01:14:05;;;;;;;25.40;12.10;;;;;;;-2.73;72.61;98001.72;107571;1268;34765;-73
2022/01/25 01:16:56;;;;;;;21.80;10.20;;;;;;;-2.75;72.48;97997.59;107603;1270;31378;-73
2022/01/25 01:30:54;;;;;;;21.20;10.90;;;;;;;-2.80;71.92;97997.27;107611;1268;41338;-72
2022/01/25 01:44:49;;;;;;;27.10;13.90;;;;;;;-2.89;72.00;97985.09;107456;1268;46069;-72
2022/01/25 01:47:26;;;;;;;24.40;13.20;;;;;;;-2.92;72.38;97983.11;107475;1269;37892;-73
2022/01/25 01:49:57;;;;;;;23.60;12.40;;;;;;;-2.92;72.34;97984.30;107540;1270;41273;-72
2022/01/25 01:52:28;;;;;;;23.70;11.70;;;;;;;-2.89;72.78;97980.54;107501;1270;39324;-72
2022/01/25 01:54:59;;;;;;;23.90;12.40;;;;;;;-2.83;72.86;97980.80;107465;1270;36944;-72
2022/01/25 01:57:30;;;;;;;23.20;12.90;;;;;;;-2.84;72.61;97978.80;107512;1269;41961;-72
2022/01/25 02:00:01;;;;;;;17.80;8.80;;;;;;;-2.86;72.60;97975.52;107559;1268;43290;-72
2022/01/25 02:02:32;;;;;;;23.00;11.70;;;;;;;-2.87;72.34;97969.73;107613;1268;43395;-72
2022/01/25 02:05:03;;;;;;;14.10;6.60;;;;;;;-2.86;72.36;97974.05;107561;1270;29083;-72
2022/01/25 02:07:34;;;;;;;25.20;11.90;;;;;;;-2.88;72.23;97970.00;107568;1268;42509;-72
2022/01/25 02:10:13;;;;;;;;;;;;;;;-2.89;72.36;97967.29;107544;1268;44689;-72
2022/01/25 02:12:45;;;;;;;21.30;12.00;;;;;;;-2.88;72.78;97962.05;107607;1268;48922;-72
2022/01/25 02:15:17;;;;;;;18.90;10.30;;;;;;;-2.85;72.99;97960.23;107630;1268;40856;-72
2022/01/25 02:22:23;;;;;;;25.20;11.80;;;;;;;-2.86;73.10;97953.59;107476;1270;46838;-74
2022/01/25 02:23:36;;;;;;;20.90;11.80;;;;;;;-2.84;73.78;97951.47;107414;1270;40966;-72
2022/01/25 02:26:09;;;;;;;18.50;10.40;;;;;;;-2.80;74.41;97948.63;107415;1271;40438;-72
2022/01/25 02:28:43;;;;;;;28.00;14.60;;;;;;;-2.78;74.25;97950.42;107501;1269;42594;-72
2022/01/25 02:31:17;;;;;;;24.80;13.90;;;;;;;-2.79;74.20;97948.29;107402;1268;294527;-72
2022/01/25 02:33:48;;;;;;;23.80;12.90;;;;;;;-2.79;74.33;97952.35;107532;1268;45191;-73
2022/01/25 02:36:27;;;;;;;27.70;15.00;;;;;;;-2.78;74.55;97948.45;107527;1270;38380;-73
2022/01/25 02:39:00;;;;;;;28.50;14.40;;;;;;;-2.76;74.81;97952.05;107605;1270;50647;-72
2022/01/25 02:41:31;;;;;;;27.40;14.70;;;;;;;-2.79;74.84;97948.52;107536;1268;43155;-72
2022/01/25 02:44:04;;;;;;;27.40;15.00;;;;;;;-2.82;74.82;97945.36;107604;1268;35492;-72
2022/01/25 02:49:23;;;;;;;25.70;12.80;;;;;;;-2.83;75.23;97945.52;107477;1270;38757;-74
2022/01/25 02:51:55;;;;;;;29.60;14.20;;;;;;;-2.87;75.42;97943.17;107580;1268;34270;-73
2022/01/25 02:54:26;;;;;;;22.30;12.40;;;;;;;-2.89;75.92;97945.06;107546;1268;46017;-73
2022/01/25 02:56:57;;;;;;;28.20;13.80;;;;;;;-2.89;76.16;97943.53;107505;1268;46424;-73
2022/01/25 02:59:28;;;;;;;23.90;13.90;;;;;;;-2.90;76.34;97940.52;107499;1270;45480;-73
2022/01/25 03:01:59;;;;;;;24.50;13.70;;;;;;;-2.90;76.31;97939.61;107477;1268;44820;-73
2022/01/25 03:04:30;;;;;;;22.40;14.20;;;;;;;-2.88;76.56;97930.46;107537;1268;52332;-73
2022/01/25 03:07:01;;;;;;;30.40;15.80;;;;;;;-2.87;76.76;97933.44;107556;1268;44928;-73
2022/01/25 03:09:33;;;;;;;27.10;14.70;;;;;;;-2.86;76.97;97934.73;107503;1268;47821;-73
2022/01/25 03:12:07;;;;;;;28.20;14.40;;;;;;;-2.83;77.20;97930.10;107551;1268;31930;-73
2022/01/25 03:14:47;;;;;;;31.70;15.10;;;;;;;-2.80;77.27;97927.91;107517;1268;49517;-73
2022/01/25 03:17:25;;;;;;;21.30;12.20;;;;;;;-2.77;77.63;97924.32;107504;1268;42820;-74
2022/01/25 03:20:04;;;;;;;26.90;11.90;;;;;;;-2.75;77.71;97923.69;107554;1268;43195;-73
2022/01/25 03:22:56;;;;;;;27.00;14.10;;;;;;;-2.74;78.16;97922.02;107481;1269;41599;-73
2022/01/25 03:25:29;;;;;;;25.20;12.20;;;;;;;-2.74;78.45;97920.94;107551;1270;36122;-73
2022/01/25 03:27:59;;;;;;;27.50;13.70;;;;;;;-2.70;79.10;97919.51;107558;1268;44982;-73
2022/01/25 03:30:31;;;;;;;24.20;12.90;;;;;;;-2.65;79.58;97923.05;107487;1268;43910;-73
2022/01/25 03:33:02;;;;;;;22.90;12.60;;;;;;;-2.65;79.91;97926.02;107572;1268;32139;-73
2022/01/25 03:35:33;;;;;;;25.20;13.60;;;;;;;-2.66;80.32;97925.53;107496;1268;43763;-73
2022/01/25 03:38:04;;;;;;;26.70;13.10;;;;;;;-2.66;80.42;97929.33;107540;1269;36435;-73
2022/01/25 03:40:35;;;;;;;29.50;16.00;;;;;;;-2.69;80.46;97923.24;107602;1268;42695;-73
2022/01/25 03:43:08;;;;;;;25.80;13.10;;;;;;;-2.72;80.38;97922.33;107521;1268;41563;-73
2022/01/25 03:45:41;;;;;;;27.50;14.10;;;;;;;-2.74;80.64;97919.45;107527;1270;49346;-73
2022/01/25 03:51:01;;;;;;;26.50;14.20;;;;;;;-2.75;81.44;97915.63;107551;1268;46162;-73
2022/01/25 03:53:32;;;;;;;24.70;13.90;;;;;;;-2.79;81.83;97913.02;107534;1270;42965;-73
2022/01/25 03:56:03;;;;;;;21.80;12.20;;;;;;;-2.80;82.08;97911.99;107532;1270;47102;-73
2022/01/25 03:58:34;;;;;;;25.00;12.50;;;;;;;-2.79;82.15;97911.34;107538;1270;40165;-73
2022/01/25 04:01:05;;;;;;;24.30;12.20;;;;;;;-2.78;82.50;97910.38;107639;1271;36760;-73
2022/01/25 04:03:41;;;;;;;24.30;12.10;;;;;;;-2.77;82.47;97908.55;107552;1268;44832;-73
2022/01/25 04:06:18;;;;;;;26.80;13.70;;;;;;;-2.73;82.92;97902.22;107386;1271;39373;-73
2022/01/25 04:08:49;;;;;;;20.70;12.10;;;;;;;-2.70;82.99;97901.17;107609;1268;41465;-74
2022/01/25 04:11:20;;;;;;;22.00;11.70;;;;;;;-2.65;83.28;97895.19;107527;1268;42313;-73
2022/01/25 04:13:53;;;;;;;18.20;9.40;;;;;;;-2.62;83.39;97895.21;107557;1268;31538;-73
2022/01/25 04:16:29;;;;;;;24.60;12.30;;;;;;;-2.63;83.79;97895.52;107529;1268;45316;-73
2022/01/25 04:19:06;;;;;;;15.80;8.70;;;;;;;-2.65;83.89;97892.95;107489;1271;47112;-73
2022/01/25 04:24:42;;;;;;;22.50;12.00;;;;;;;-2.66;84.03;97888.53;107443;1268;48465;-73
2022/01/25 04:25:04;;;;;;;23.40;11.40;;;;;;;-2.62;84.71;97882.91;107538;1268;47854;-73
2022/01/25 04:27:35;;;;;;;22.70;11.00;;;;;;;-2.58;84.74;97878.42;107618;1268;29897;-73
2022/01/25 04:30:09;;;;;;;21.60;13.30;;;;;;;-2.58;84.81;97877.45;107553;1268;49444;-73
2022/01/25 04:32:48;;;;;;;13.60;8.20;;;;;;;-2.58;85.01;97878.13;107555;1268;42910;-73
2022/01/25 04:35:45;;;;;;;19.30;11.10;;;;;;;-2.55;85.63;97877.11;107593;1268;39607;-73
2022/01/25 04:49:31;;;;;;;25.90;11.70;;;;;;;-2.65;85.70;97890.13;107524;1271;62856;-73
2022/01/25 04:52:05;;;;;;;15.00;8.00;;;;;;;-2.64;86.39;97884.61;107577;1268;43187;-73
2022/01/25 04:54:46;;;;;;;25.20;13.80;;;;;;;-2.63;86.36;97881.27;107518;1268;44393;-73
2022/01/25 04:57:30;;;;;;;17.80;9.30;;;;;;;-2.64;86.78;97871.30;107549;1270;40206;-73
2022/01/25 05:00:09;;;;;;;15.80;10.20;;;;;;;-2.63;86.83;97872.73;107539;1268;35517;-73
2022/01/25 05:02:47;;;;;;;16.30;8.60;;;;;;;-2.59;86.99;97870.41;107450;1271;46698;-73
2022/01/25 05:05:24;;;;;;;25.10;13.40;;;;;;;-2.58;87.17;97860.81;107593;1268;41893;-74
2022/01/25 05:08:00;;;;;;;22.10;12.80;;;;;;;-2.60;87.26;97859.26;107554;1268;33863;-73
2022/01/25 05:10:36;;;;;;;26.80;13.30;;;;;;;-2.61;86.98;97856.79;107502;1271;45489;-73
2022/01/25 05:13:17;;;;;;;19.20;11.20;;;;;;;-2.64;87.12;97854.41;107516;1271;38935;-73
2022/01/25 05:16:05;;;;;;;17.00;9.70;;;;;;;-2.64;87.25;97855.09;107594;1270;45094;-73
2022/01/25 05:18:41;;;;;;;23.10;10.90;;;;;;;-2.61;87.44;97849.36;107489;1271;41326;-73
2022/01/25 05:24:09;;;;;;;25.30;10.10;;;;;;;-2.63;87.86;97849.08;107340;1268;45283;-73
2022/01/25 05:26:40;;;;;;;13.30;7.10;;;;;;;-2.65;87.85;97844.80;107596;1268;38100;-73
2022/01/25 05:29:11;;;;;;;20.90;10.70;;;;;;;-2.67;88.03;97854.53;107587;1268;44091;-73
2022/01/25 05:31:42;;;;;;;17.60;8.90;;;;;;;-2.70;88.20;97849.27;107492;1268;44504;-73
2022/01/25 05:34:13;;;;;;;20.20;11.10;;;;;;;-2.65;89.07;97847.23;107624;1268;31656;-73
2022/01/25 05:36:44;;;;;;;14.20;8.70;;;;;;;-2.62;89.14;97851.06;107654;1268;31385;-73
2022/01/25 05:39:19;;;;;;;14.80;7.40;;;;;;;-2.64;89.59;97851.65;107483;1271;40489;-73
2022/01/25 05:41:57;;;;;;;16.20;8.20;;;;;;;-2.55;89.89;97857.17;107527;1268;41527;-73
2022/01/25 05:44:39;;;;;;;18.30;10.70;;;;;;;-2.58;89.75;97855.48;107404;1271;47296;-73
2022/01/25 05:47:14;;;;;;;22.50;8.70;;;;;;;-2.59;89.87;97855.91;107528;1268;36797;-73
2022/01/25 05:49:45;;;;;;;14.60;6.70;;;;;;;-2.62;90.02;97852.21;107526;1268;41550;-73
2022/01/25 05:52:16;;;;;;;13.90;6.40;;;;;;;-2.65;90.16;97850.55;107549;1268;47828;-73
2022/01/25 05:54:48;;;;;;;16.00;7.70;;;;;;;-2.67;90.34;97841.73;107557;1268;32570;-73
2022/01/25 05:57:19;;;;;;;15.60;8.10;;;;;;;-2.67;90.58;97833.10;107572;1268;77627;-73
2022/01/25 05:59:50;;;;;;;18.20;9.20;;;;;;;-2.66;90.67;97821.55;107459;1268;46460;-73
2022/01/25 06:02:23;;;;;;;10.20;7.00;;;;;;;-2.62;90.70;97818.38;107548;1268;48233;-73
2022/01/25 06:04:54;;;;;;;16.80;7.80;;;;;;;-2.58;90.93;97816.91;107589;1268;35881;-73
2022/01/25 06:07:26;;;;;;;19.50;7.80;;;;;;;-2.56;90.91;97826.64;107507;1268;61281;-73
2022/01/25 06:09:58;;;;;;;17.10;9.00;;;;;;;-2.59;91.03;97826.32;107539;1268;39187;-73
2022/01/25 06:12:29;;;;;;;13.60;8.10;;;;;;;-2.59;91.04;97829.05;107487;1271;34645;-73
2022/01/25 06:15:00;;;;;;;14.10;7.10;;;;;;;-2.56;91.12;97827.34;107554;1268;33696;-73
2022/01/25 06:17:31;;;;;;;17.70;10.20;;;;;;;-2.50;91.17;97824.65;107472;1270;44940;-73
2022/01/25 06:20:02;;;;;;;16.20;9.50;;;;;;;-2.46;91.29;97829.77;107537;1268;33055;-73
2022/01/25 06:22:34;;;;;;;21.40;11.00;;;;;;;-2.42;91.06;97826.86;107482;1271;46716;-73
2022/01/25 06:25:05;;;;;;;13.50;7.90;;;;;;;-2.38;91.14;97830.12;107451;1271;44295;-72
2022/01/25 06:27:38;;;;;;;17.30;10.00;;;;;;;-2.35;91.06;97830.66;107407;1270;44624;-72
2022/01/25 06:30:13;;;;;;;20.10;10.50;;;;;;;-2.35;91.04;97840.40;107484;1271;36196;-72
2022/01/25 06:32:45;;;;;;;13.70;8.40;;;;;;;-2.33;90.94;97840.25;107648;1268;40853;-72
2022/01/25 06:35:18;;;;;;;18.70;9.80;;;;;;;-2.33;90.88;97829.55;107541;1271;42956;-72
2022/01/25 06:37:49;;;;;;;18.00;9.70;;;;;;;-2.31;90.88;97827.81;107526;1267;45628;-73
2022/01/25 06:40:20;;;;;;;17.30;9.90;;;;;;;-2.30;90.64;97828.72;107532;1268;35492;-72
2022/01/25 06:42:52;;;;;;;19.30;10.40;;;;;;;-2.30;90.55;97828.68;107489;1271;42701;-72
2022/01/25 06:45:24;;;;;;;16.40;10.40;;;;;;;-2.29;90.65;97831.34;107525;1268;32735;-73
2022/01/25 06:47:55;;;;;;;18.90;11.00;;;;;;;-2.25;90.48;97832.45;107441;1268;40537;-74
2022/01/25 06:50:26;;;;;;;20.80;10.90;;;;;;;-2.22;90.42;97837.41;107524;1268;38568;-72
2022/01/25 06:52:58;;;;;;;20.40;11.40;;;;;;;-2.23;90.35;97829.48;107684;1268;35942;-72
2022/01/25 06:55:29;;;;;;;19.20;10.40;;;;;;;-2.27;90.03;97826.27;107621;1268;42795;-72
2022/01/25 06:58:00;;;;;;;20.70;12.30;;;;;;;-2.28;89.92;97815.82;107591;1270;44290;-72
2022/01/25 07:00:31;;;;;;;17.20;9.50;;;;;;;-2.26;89.86;97807.94;107588;1268;47126;-72
2022/01/25 07:03:02;;;;;;;24.20;13.10;;;;;;;-2.22;90.18;97806.02;107518;1269;46875;-72
2022/01/25 07:05:34;;;;;;;23.60;11.90;;;;;;;-2.24;90.12;97810.77;107581;1268;41438;-72
2022/01/25 07:08:05;;;;;;;15.30;8.00;;;;;;;-2.24;90.05;97801.39;107528;1268;46622;-72
2022/01/25 07:10:37;;;;;;;17.80;11.00;;;;;;;-2.21;90.23;97797.63;107522;1268;45967;-72
2022/01/25 07:13:08;;;;;;;20.30;11.70;;;;;;;-2.18;90.23;97793.03;107458;1268;42423;-72
2022/01/25 07:15:39;;;;;;;19.60;10.90;;;;;;;-2.12;90.09;97788.78;107558;1268;45063;-72
2022/01/25 07:18:10;;;;;;;16.50;8.70;;;;;;;-2.04;90.13;97791.58;107561;1268;45886;-72
2022/01/25 07:20:41;;;;;;;15.60;7.90;;;;;;;-1.96;90.39;97790.60;107480;1270;44379;-72
2022/01/25 07:23:13;;;;;;;10.80;6.60;;;;;;;-1.79;91.19;97786.91;107469;1270;46402;-72
2022/01/25 07:25:44;;;;;;;13.70;7.00;;;;;;;-1.56;91.61;97780.08;107570;1268;30390;-72
2022/01/25 07:28:16;;;;;;;11.60;6.50;;;;;;;-1.43;91.44;97780.77;107593;1268;36300;-72
2022/01/25 07:30:47;;;;;;;16.80;8.10;;;;;;;-1.36;91.31;97791.00;107496;1271;43063;-72
2022/01/25 07:33:18;;;;;;;14.90;6.60;;;;;;;-1.28;91.30;97790.21;107640;1268;40555;-72
2022/01/25 07:35:49;;;;;;;19.90;11.10;;;;;;;-1.24;91.05;97790.09;107539;1268;33414;-73
2022/01/25 07:38:20;;;;;;;19.30;10.70;;;;;;;-1.25;90.82;97799.44;107459;1269;35096;-73
2022/01/25 07:40:51;;;;;;;19.00;10.70;;;;;;;-1.28;90.40;97798.08;107443;1268;42458;-73
2022/01/25 07:43:23;;;;;;;16.60;9.30;;;;;;;-1.30;90.16;97789.48;107566;1268;30803;-72
2022/01/25 07:45:56;;;;;;;19.60;10.10;;;;;;;-1.32;89.80;97786.02;107577;1268;50249;-73
2022/01/25 07:48:27;;;;;;;15.00;9.20;;;;;;;-1.33;89.77;97786.16;107481;1268;41981;-72
2022/01/25 07:50:59;;;;;;;21.00;11.40;;;;;;;-1.30;89.99;97781.35;107533;1268;33178;-72
2022/01/25 07:53:30;;;;;;;17.30;10.90;;;;;;;-1.30;89.70;97785.32;107596;1267;44837;-72
2022/01/25 07:56:01;;;;;;;19.50;11.70;;;;;;;-1.28;89.71;97782.18;107476;1270;42932;-72
2022/01/25 07:58:33;;;;;;;19.20;11.60;;;;;;;-1.28;89.64;97783.44;107533;1268;44055;-72
2022/01/25 08:01:04;;;;;;;21.10;11.90;;;;;;;-1.22;89.65;97781.10;107671;1268;40755;-72
2022/01/25 08:03:35;;;;;;;20.60;10.40;;;;;;;-1.20;89.64;97781.02;107590;1270;37081;-72
2022/01/25 08:06:09;;;;;;;23.40;13.90;;;;;;;-1.19;89.71;97785.60;107657;1268;47113;-73
2022/01/25 08:08:40;;;;;;;26.00;14.20;;;;;;;-1.29;89.68;97787.91;107650;1268;47081;-72
2022/01/25 08:11:11;;;;;;;27.10;16.00;;;;;;;-1.38;89.90;97786.77;107626;1270;47609;-72
2022/01/25 08:13:47;;;;;;;28.40;17.60;;;;;;;-1.52;90.11;97787.76;107618;1267;43469;-72
2022/01/25 08:16:19;;;;;;;25.80;13.90;;;;;;;-1.62;90.23;97797.11;107497;1268;39718;-73
2022/01/25 08:18:50;;;;;;;28.30;14.30;;;;;;;-1.64;90.67;97794.21;107485;1268;47455;-73
2022/01/25 08:21:21;;;;;;;29.00;14.50;;;;;;;-1.60;90.73;97795.15;107482;1268;44329;-73
2022/01/25 08:23:52;;;;;;;23.70;14.50;;;;;;;-1.62;91.16;97795.48;107525;1268;48705;-73
2022/01/25 08:26:23;;;;;;;21.80;14.30;;;;;;;-1.61;91.40;97784.78;107524;1268;34417;-72
2022/01/25 08:28:54;;;;;;;23.50;13.10;;;;;;;-1.59;91.44;97790.84;107493;1268;37613;-72
2022/01/25 08:31:25;;;;;;;20.10;12.00;;;;;;;-1.57;91.72;97787.65;107446;1269;44750;-73
2022/01/25 08:33:57;;;;;;;28.10;13.90;;;;;;;-1.50;91.73;97782.86;107532;1268;37340;-72
2022/01/25 08:36:30;;;;;;;22.40;12.90;;;;;;;-1.44;91.66;97786.75;107464;1266;43145;-73
2022/01/25 08:39:01;;;;;;;23.90;12.60;;;;;;;-1.38;91.71;97782.76;107470;1268;45009;-72
2022/01/25 08:41:32;;;;;;;24.50;13.20;;;;;;;-1.32;91.42;97781.73;107514;1268;37648;-72
2022/01/25 09:37:35;;;;;;;22.90;12.60;;;;;;;-0.49;90.98;97761.88;104268;1310;557385;-77
2022/01/25 09:40:09;;;;;;;18.50;11.70;;;;;;;-0.31;90.71;97754.33;106483;1281;215949;-76
2022/01/25 09:42:41;;;;;;;16.50;9.20;;;;;;;-0.26;90.58;97754.36;107113;1280;33117;-76
2022/01/25 09:45:12;;;;;;;16.70;9.90;;;;;;;-0.25;90.41;97749.00;106992;1280;38523;-77
2022/01/25 09:47:48;;;;;;;16.00;9.50;;;;;;;-0.22;90.43;97745.87;107033;1280;39480;-77
2022/01/25 09:50:20;;;;;;;15.70;9.90;;;;;;;-0.18;90.34;97737.49;107031;1278;33242;-77
2022/01/25 09:52:52;;;;;;;19.10;10.40;;;;;;;-0.13;90.81;97734.73;107579;1267;44021;-76
2022/01/25 09:55:28;;;;;;;18.40;10.10;;;;;;;-0.17;90.30;97734.91;107669;1267;29989;-76
2022/01/25 09:58:03;;;;;;;16.70;9.60;;;;;;;-0.20;90.28;97735.39;107567;1267;36236;-76
2022/01/25 10:00:36;;;;;;;19.00;10.80;;;;;;;-0.22;90.46;97738.50;107620;1267;87867;-77
2022/01/25 10:03:15;;;;;;;17.80;11.40;;;;;;;-0.22;90.62;97732.69;107788;1267;28478;-76
2022/01/25 10:05:47;;;;;;;22.50;13.30;;;;;;;-0.16;90.67;97733.23;107617;1268;43455;-76
2022/01/25 10:08:21;;;;;;;21.30;11.20;;;;;;;-0.11;90.84;97733.58;107574;1267;38572;-77
2022/01/25 10:10:54;;;;;;;19.40;12.70;;;;;;;-0.07;90.77;97734.50;107796;1267;45810;-76
2022/01/25 10:13:28;;;;;;;23.00;12.70;;;;;;;-0.06;90.60;97730.98;107580;1267;43341;-76
2022/01/25 10:16:03;;;;;;;22.60;12.90;;;;;;;-0.05;90.48;97738.90;107557;1267;51639;-77
2022/01/25 10:18:43;;;;;;;17.70;11.10;;;;;;;0.02;90.35;97733.53;107627;1267;33143;-77
2022/01/25 10:21:18;;;;;;;18.70;9.20;;;;;;;0.09;90.54;97724.02;107681;1267;46927;-77
2022/01/25 10:24:04;;;;;;;15.00;7.10;;;;;;;0.23;90.24;97724.64;107627;1267;32898;-76
2022/01/25 10:26:39;;;;;;;20.30;11.20;;;;;;;0.33;90.08;97721.70;107593;1268;45005;-77
2022/01/25 10:29:12;;;;;;;20.40;11.50;;;;;;;0.31;89.72;97716.15;107703;1266;42808;-77
2022/01/25 10:31:49;;;;;;;14.70;7.90;;;;;;;0.33;89.87;97713.00;107629;1267;47842;-77
2022/01/25 10:34:24;;;;;;;7.30;3.80;;;;;;;0.35;89.54;97705.06;107710;1267;44965;-76
2022/01/25 10:36:57;;;;;;;9.30;5.40;;;;;;;0.41;89.70;97704.88;107616;1267;30775;-76
2022/01/25 10:39:31;;;;;;;10.20;5.20;;;;;;;0.47;89.71;97708.11;107635;1268;38666;-77
2022/01/25 10:42:08;;;;;;;9.90;6.50;;;;;;;0.52;89.46;97706.75;107662;1268;33404;-77
2022/01/25 10:44:51;;;;;;;12.70;7.00;;;;;;;0.57;89.66;97697.26;107665;1268;34976;-77
2022/01/25 10:47:40;;;;;;;5.10;3.40;;;;;;;0.58;89.22;97694.02;107705;1268;33594;-77
2022/01/25 10:50:19;;;;;;;8.20;4.40;;;;;;;0.55;89.12;97694.80;107802;1267;38517;-78
2022/01/25 10:53:07;;;;;;;6.60;3.80;;;;;;;0.50;89.37;97697.10;107733;1268;38973;-77
2022/01/25 10:55:44;;;;;;;7.80;5.50;;;;;;;0.48;89.23;97700.98;107724;1268;30174;-77
2022/01/25 10:58:16;;;;;;;7.90;5.20;;;;;;;0.46;89.69;97704.73;107542;1270;30270;-77
2022/01/25 11:00:51;;;;;;;8.70;5.30;;;;;;;0.44;89.41;97694.73;107582;1268;30308;-77
2022/01/25 11:03:29;;;;;;;7.30;4.60;;;;;;;0.45;89.65;97695.70;107736;1267;34645;-77
2022/01/25 11:06:12;;;;;;;9.10;5.00;;;;;;;0.42;89.77;97689.63;107663;1270;38064;-77
2022/01/25 11:08:45;;;;;;;11.70;5.80;;;;;;;0.40;89.87;97687.29;107604;1267;40615;-77
2022/01/25 11:11:26;;;;;;;6.60;4.10;;;;;;;0.40;89.94;97690.54;107724;1267;35149;-76
2022/01/25 11:14:50;;;;;;;10.20;5.40;;;;;;;0.45;89.76;97688.20;107624;1267;99836;-78
2022/01/25 11:16:53;;;;;;;11.70;7.00;;;;;;;0.50;89.66;97689.08;107634;1268;43137;-77
2022/01/25 11:19:25;;;;;;;10.80;6.40;;;;;;;0.52;89.82;97686.76;107611;1268;30082;-77
2022/01/25 11:21:58;;;;;;;11.20;5.90;;;;;;;0.56;89.40;97686.29;107618;1267;37388;-77
2022/01/25 11:24:34;;;;;;;12.70;6.90;;;;;;;0.54;89.28;97677.86;107650;1267;38774;-77
2022/01/25 11:27:08;;;;;;;12.20;6.50;;;;;;;0.59;89.23;97674.47;107697;1267;29416;-77
2022/01/25 11:29:43;;;;;;;11.70;6.90;;;;;;;0.62;89.31;97664.61;107734;1267;37692;-77
2022/01/25 11:32:20;;;;;;;10.30;6.50;;;;;;;0.64;89.29;97656.70;107556;1268;107785;-76
2022/01/25 11:34:52;;;;;;;12.90;6.50;;;;;;;0.70;89.09;97662.89;107741;1267;65666;-78
2022/01/25 11:37:37;;;;;;;13.00;7.00;;;;;;;0.73;88.99;97660.12;107514;1268;105495;-77
2022/01/25 11:40:24;;;;;;;9.70;6.10;;;;;;;0.76;89.03;97658.45;107685;1267;29743;-77
2022/01/25 11:42:58;;;;;;;9.80;5.70;;;;;;;0.87;88.97;97651.48;107576;1268;43373;-77
2022/01/25 11:45:32;;;;;;;10.20;5.70;;;;;;;0.94;88.53;97646.27;107647;1268;43273;-77
2022/01/25 11:48:03;;;;;;;12.50;5.00;;;;;;;0.99;88.21;97634.74;107640;1267;143199;-77
2022/01/25 11:50:36;;;;;;;12.20;6.20;;;;;;;0.97;88.03;97632.51;107563;1269;40725;-77
2022/01/25 11:53:10;;;;;;;6.20;3.40;;;;;;;1.04;87.98;97626.98;107708;1267;38771;-78
2022/01/25 11:55:46;;;;;;;11.30;6.10;;;;;;;1.02;87.15;97625.98;107683;1267;100546;-77
2022/01/25 11:58:27;;;;;;;10.10;5.60;;;;;;;0.99;86.99;97622.94;107587;1267;40113;-76
2022/01/25 12:01:00;;;;;;;9.70;5.60;;;;;;;0.99;87.07;97622.54;107566;1268;39237;-76
2022/01/25 12:03:37;;;;;;;10.00;5.90;;;;;;;0.91;87.06;97620.23;107699;1266;27772;-77
2022/01/25 12:06:14;;;;;;;9.60;5.30;;;;;;;0.82;87.13;97619.52;107757;1267;39623;-77
2022/01/25 12:08:55;;;;;;;14.00;6.00;;;;;;;0.80;87.37;97601.13;107627;1267;40771;-76
2022/01/25 12:11:35;;;;;;;9.80;6.00;;;;;;;0.79;87.50;97600.48;107610;1268;75995;-76
2022/01/25 12:14:25;;;;;;;13.10;5.90;;;;;;;0.80;87.65;97604.62;107571;1268;114081;-77
2022/01/25 12:17:00;;;;;;;8.10;5.10;;;;;;;0.88;87.56;97597.73;107516;1267;97659;-77
2022/01/25 12:19:47;;;;;;;8.00;4.90;;;;;;;0.92;87.61;97596.70;107725;1268;134097;-77
2022/01/25 12:22:35;;;;;;;10.80;6.80;;;;;;;0.88;87.09;97594.08;107717;1268;101549;-77
2022/01/25 12:25:22;;;;;;;9.00;5.90;;;;;;;0.87;87.33;97592.20;107575;1269;98329;-77
2022/01/25 12:27:57;;;;;;;13.00;7.30;;;;;;;0.89;87.43;97593.69;107647;1267;66415;-77
2022/01/25 12:30:39;;;;;;;13.40;6.80;;;;;;;0.91;87.19;97597.30;107676;1267;42512;-77
2022/01/25 12:33:19;;;;;;;11.80;6.20;;;;;;;0.89;87.37;97595.21;107762;1268;102743;-77
2022/01/25 12:35:52;;;;;;;12.30;7.30;;;;;;;0.92;87.06;97598.88;107614;1268;41992;-77
2022/01/25 12:38:27;;;;;;;13.40;8.20;;;;;;;0.94;87.17;97593.90;107803;1267;28670;-76
2022/01/25 12:41:01;;;;;;;10.30;7.10;;;;;;;0.97;87.12;97595.80;107690;1267;44531;-77
2022/01/25 12:43:38;;;;;;;14.90;7.20;;;;;;;0.97;86.92;97597.69;107740;1267;61215;-77
2022/01/25 12:46:13;;;;;;;10.80;6.20;;;;;;;0.94;87.08;97595.75;107730;1268;43530;-77
2022/01/25 12:48:47;;;;;;;8.20;5.40;;;;;;;0.95;87.26;97593.38;107707;1268;46091;-76
2022/01/25 12:51:22;;;;;;;7.60;6.00;;;;;;;0.94;87.11;97586.06;107711;1268;35709;-76
2022/01/25 12:53:57;;;;;;;9.10;5.50;;;;;;;0.91;87.13;97585.09;107810;1268;43374;-77
2022/01/25 12:56:34;;;;;;;8.50;4.80;;;;;;;0.91;86.92;97579.84;107708;1268;40023;-77
2022/01/25 12:59:09;;;;;;;11.40;6.10;;;;;;;0.89;86.80;97585.58;107746;1268;30715;-77
2022/01/25 13:01:46;;;;;;;10.20;5.70;;;;;;;0.90;86.55;97582.72;107865;1267;37963;-77
2022/01/25 13:04:17;;;;;;;7.40;4.60;;;;;;;0.90;86.66;97586.22;107607;1268;40922;-76
2022/01/25 13:06:52;;;;;;;8.80;4.60;;;;;;;0.90;86.60;97578.59;107571;1268;44199;-76
2022/01/25 13:09:29;;;;;;;8.20;4.40;;;;;;;0.91;86.32;97576.86;107685;1268;32774;-77
2022/01/25 13:12:14;;;;;;;8.50;5.20;;;;;;;0.90;86.63;97580.87;107573;1268;41979;-76
2022/01/25 13:14:50;;;;;;;7.50;3.90;;;;;;;0.89;86.57;97582.11;107530;1270;39980;-77
2022/01/25 13:17:26;;;;;;;5.40;3.50;;;;;;;0.89;86.42;97583.73;107555;1268;44251;-77
2022/01/25 13:20:02;;;;;;;5.70;3.50;;;;;;;0.87;86.34;97581.52;107630;1268;38540;-77
2022/01/25 13:22:38;;;;;;;7.70;3.80;;;;;;;0.85;86.08;97581.14;107727;1268;34491;-77
2022/01/25 13:25:24;;;;;;;6.40;3.50;;;;;;;0.84;86.11;97582.64;107661;1267;36890;-77
2022/01/25 13:27:59;;;;;;;9.40;5.40;;;;;;;0.84;86.26;97588.55;107526;1268;39414;-76
2022/01/25 13:30:43;;;;;;;9.20;4.10;;;;;;;0.84;86.08;97584.92;107546;1268;44887;-76
2022/01/25 13:33:17;;;;;;;7.30;4.60;;;;;;;0.83;86.43;97585.04;107737;1268;43479;-76
2022/01/25 13:35:52;;;;;;;6.90;3.40;;;;;;;0.82;86.38;97577.05;107627;1268;38619;-76
2022/01/25 13:38:25;;;;;;;6.30;2.50;;;;;;;0.83;86.43;97579.21;107581;1268;43210;-76
2022/01/25 13:41:17;;;;;;;8.50;5.30;;;;;;;0.82;86.20;97576.92;107627;1268;42807;-77
2022/01/25 13:46:40;;;;;;;6.10;3.20;;;;;;;0.78;86.33;97581.33;107761;1268;35854;-77
2022/01/25 13:49:15;;;;;;;6.90;3.10;;;;;;;0.74;86.20;97590.02;107738;1268;33910;-77
2022/01/25 13:51:48;;;;;;;7.00;3.80;;;;;;;0.71;86.28;97585.34;107587;1268;39678;-76
2022/01/25 13:54:21;;;;;;;9.30;5.60;;;;;;;0.68;86.04;97597.55;107710;1268;42033;-76
2022/01/25 13:56:52;;;;;;;6.90;4.10;;;;;;;0.66;86.09;97604.77;107531;1268;43358;-77